createdAt,value
2022-08-28T00:01:33.515Z,71.13
2022-08-28T00:04:06.565Z,71.26
2022-08-28T00:06:38.276Z,71.24
2022-08-28T00:09:11.469Z,71.87
2022-08-28T00:11:43.746Z,73.00
2022-08-28T00:14:15.290Z,73.60
2022-08-28T00:16:47.092Z,73.81
2022-08-28T00:19:20.699Z,73.59
2022-08-28T00:21:54.002Z,72.76
2022-08-28T00:24:25.784Z,72.89
2022-08-28T00:27:15.501Z,73.40
2022-08-28T00:29:50.950Z,73.84
2022-08-28T00:32:25.211Z,74.60
2022-08-28T00:34:56.924Z,74.70
2022-08-28T00:37:30.277Z,74.67
2022-08-28T00:40:02.150Z,74.56
2022-08-28T00:42:36.325Z,74.69
2022-08-28T00:45:09.916Z,74.53
2022-08-28T00:47:41.574Z,74.46
2022-08-28T00:50:17.956Z,74.46
2022-08-28T00:52:54.196Z,73.63
2022-08-28T00:55:28.912Z,74.02
2022-08-28T00:58:02.022Z,74.73
2022-08-28T01:00:36.986Z,74.92
2022-08-28T01:03:09.179Z,74.93
2022-08-28T01:05:50.411Z,74.87
2022-08-28T01:08:20.677Z,75.02
2022-08-28T01:10:58.645Z,74.97
2022-08-28T01:13:32.005Z,74.47
2022-08-28T01:16:04.212Z,74.23
2022-08-28T01:18:36.553Z,74.02
2022-08-28T01:21:20.408Z,73.52
2022-08-28T01:23:57.787Z,72.87
2022-08-28T01:26:30.363Z,73.35
2022-08-28T01:29:04.541Z,74.30
2022-08-28T01:31:37.813Z,74.83
2022-08-28T01:34:12.454Z,74.74
2022-08-28T01:36:45.505Z,74.77
2022-08-28T01:39:20.285Z,74.96
2022-08-28T01:41:53.454Z,74.94
2022-08-28T01:44:27.518Z,74.19
2022-08-28T01:47:00.568Z,73.85
2022-08-28T01:49:32.321Z,74.62
2022-08-28T01:52:04.708Z,75.02
2022-08-28T01:54:36.980Z,75.06
2022-08-28T01:57:13.209Z,75.26
2022-08-28T01:59:44.846Z,75.21
2022-08-28T02:02:17.960Z,74.84
2022-08-28T02:04:49.667Z,75.12
2022-08-28T02:07:21.307Z,75.33
2022-08-28T02:09:52.962Z,75.61
2022-08-28T02:12:25.152Z,75.79
2022-08-28T02:14:56.995Z,76.08
2022-08-28T02:17:28.690Z,76.16
2022-08-28T02:20:00.298Z,76.10
2022-08-28T02:22:31.871Z,76.14
2022-08-28T02:25:04.139Z,76.27
2022-08-28T02:27:36.330Z,76.26
2022-08-28T02:30:12.715Z,75.63
2022-08-28T02:32:45.288Z,75.91
2022-08-28T02:35:19.792Z,76.00
2022-08-28T02:37:52.108Z,76.29
2022-08-28T02:40:28.050Z,76.33
2022-08-28T02:43:00.327Z,76.36
2022-08-28T02:45:32.341Z,76.20
2022-08-28T02:48:05.007Z,76.16
2022-08-28T02:50:47.155Z,76.21
2022-08-28T02:53:18.768Z,75.91
2022-08-28T02:55:50.392Z,75.91
2022-08-28T02:58:22.168Z,76.01
2022-08-28T03:00:53.794Z,75.75
2022-08-28T03:03:31.106Z,75.83
2022-08-28T03:06:03.482Z,76.14
2022-08-28T03:08:35.120Z,76.22
2022-08-28T03:11:07.948Z,76.07
2022-08-28T03:13:39.538Z,75.97
2022-08-28T03:16:11.665Z,74.77
2022-08-28T03:18:43.440Z,75.52
2022-08-28T03:21:15.045Z,75.97
2022-08-28T03:23:47.241Z,76.20
2022-08-28T03:26:20.898Z,76.17
2022-08-28T03:28:57.642Z,75.89
2022-08-28T03:31:35.780Z,75.64
2022-08-28T03:34:07.615Z,76.03
2022-08-28T03:36:39.163Z,76.12
2022-08-28T03:39:11.921Z,75.98
2022-08-28T03:41:45.954Z,75.81
2022-08-28T03:44:17.650Z,75.58
2022-08-28T03:46:49.398Z,75.96
2022-08-28T03:49:21.996Z,76.18
2022-08-28T03:51:54.735Z,76.21
2022-08-28T03:54:26.513Z,76.06
2022-08-28T03:56:58.317Z,76.11
2022-08-28T03:59:33.503Z,75.66
2022-08-28T04:02:05.292Z,75.47
2022-08-28T04:04:36.917Z,75.64
2022-08-28T04:07:08.495Z,75.91
2022-08-28T04:09:40.110Z,75.90
2022-08-28T04:12:13.092Z,75.99
2022-08-28T04:14:44.909Z,76.11
2022-08-28T04:17:16.566Z,76.15
2022-08-28T04:19:52.835Z,75.98
2022-08-28T04:22:24.841Z,75.92
2022-08-28T04:24:56.636Z,75.88
2022-08-28T04:27:28.359Z,76.17
2022-08-28T04:30:00.020Z,76.30
2022-08-28T04:32:36.352Z,76.54
2022-08-28T04:35:10.545Z,76.60
2022-08-28T04:37:43.707Z,76.56
2022-08-28T04:40:16.042Z,76.57
2022-08-28T04:42:47.735Z,76.14
2022-08-28T04:45:19.952Z,75.20
2022-08-28T04:47:51.568Z,75.09
2022-08-28T04:50:23.328Z,74.90
2022-08-28T04:52:54.989Z,75.38
2022-08-28T04:55:48.533Z,75.89
2022-08-28T04:58:19.911Z,76.30
2022-08-28T05:00:56.261Z,75.88
2022-08-28T05:03:27.934Z,75.60
2022-08-28T05:05:59.492Z,75.49
2022-08-28T05:08:34.016Z,75.52
2022-08-28T05:11:32.679Z,75.69
2022-08-28T05:14:06.969Z,75.74
2022-08-28T05:16:43.978Z,76.17
2022-08-28T05:19:16.662Z,76.05
2022-08-28T05:21:48.455Z,76.31
2022-08-28T05:24:21.297Z,76.26
2022-08-28T05:26:55.456Z,76.69
2022-08-28T05:29:31.715Z,76.53
2022-08-28T05:32:03.293Z,75.00
2022-08-28T05:34:35.453Z,74.59
2022-08-28T05:37:08.905Z,73.89
2022-08-28T05:39:40.563Z,73.56
2022-08-28T05:42:12.298Z,72.62
2022-08-28T05:44:44.090Z,69.93
2022-08-28T05:47:16.711Z,65.61
2022-08-28T05:49:53.260Z,62.87
2022-08-28T05:52:24.939Z,64.01
2022-08-28T05:54:56.791Z,64.60
2022-08-28T05:57:28.324Z,65.33
2022-08-28T06:00:00.103Z,65.11
2022-08-28T06:02:31.619Z,65.47
2022-08-28T06:05:04.075Z,65.98
2022-08-28T06:07:36.089Z,65.82
2022-08-28T06:10:10.611Z,66.16
2022-08-28T06:12:42.425Z,66.72
2022-08-28T06:15:15.540Z,66.97
2022-08-28T06:17:48.487Z,66.93
2022-08-28T06:20:20.888Z,67.04
2022-08-28T06:22:53.741Z,67.27
2022-08-28T06:25:25.383Z,66.92
2022-08-28T06:27:56.971Z,66.80
2022-08-28T06:30:28.583Z,66.62
2022-08-28T06:33:01.930Z,66.80
2022-08-28T06:35:34.400Z,66.73
2022-08-28T06:38:08.712Z,66.27
2022-08-28T06:40:45.228Z,66.27
2022-08-28T06:43:18.279Z,66.10
2022-08-28T06:45:54.816Z,65.95
2022-08-28T06:48:29.923Z,65.88
2022-08-28T06:51:02.046Z,64.84
2022-08-28T06:53:35.537Z,63.08
2022-08-28T06:56:10.160Z,62.38
2022-08-28T06:58:50.187Z,61.67
2022-08-28T07:01:26.953Z,61.49
2022-08-28T07:04:01.235Z,61.41
2022-08-28T07:06:36.095Z,61.44
2022-08-28T07:09:09.299Z,62.56
2022-08-28T07:11:41.315Z,62.88
2022-08-28T07:14:13.317Z,62.07
2022-08-28T07:16:45.003Z,61.82
2022-08-28T07:19:16.765Z,61.32
2022-08-28T07:21:49.012Z,61.06
2022-08-28T07:24:23.356Z,60.48
2022-08-28T07:26:55.212Z,58.01
2022-08-28T07:29:27.001Z,55.50
2022-08-28T07:31:59.564Z,54.10
2022-08-28T07:34:31.271Z,54.16
2022-08-28T07:37:04.291Z,55.87
2022-08-28T07:39:36.400Z,55.32
2022-08-28T07:42:09.384Z,55.24
2022-08-28T07:44:50.375Z,55.21
2022-08-28T07:47:22.909Z,55.32
2022-08-28T07:49:57.754Z,58.04
2022-08-28T07:52:30.378Z,57.93
2022-08-28T07:55:01.996Z,57.63
2022-08-28T07:57:34.225Z,56.28
2022-08-28T08:00:07.871Z,56.83
2022-08-28T08:02:43.639Z,57.74
2022-08-28T08:05:15.328Z,57.26
2022-08-28T08:07:50.017Z,57.76
2022-08-28T08:10:23.236Z,57.13
2022-08-28T08:12:54.741Z,56.93
2022-08-28T08:15:30.715Z,57.44
2022-08-28T08:18:02.987Z,56.96
2022-08-28T08:20:34.693Z,56.95
2022-08-28T08:23:06.335Z,56.34
2022-08-28T08:25:38.090Z,56.53
2022-08-28T08:28:09.737Z,56.34
2022-08-28T08:30:41.294Z,56.08
2022-08-28T08:33:13.851Z,55.28
2022-08-28T08:35:46.695Z,56.00
2022-08-28T08:38:20.591Z,55.26
2022-08-28T08:40:52.885Z,55.61
2022-08-28T08:43:29.400Z,55.65
2022-08-28T08:46:01.143Z,54.58
2022-08-28T08:48:38.769Z,55.47
2022-08-28T08:51:21.436Z,54.68
2022-08-28T08:54:07.133Z,55.11
2022-08-28T08:56:39.532Z,55.16
2022-08-28T08:59:15.362Z,55.09
2022-08-28T09:01:57.026Z,54.93
2022-08-28T09:04:40.521Z,54.90
2022-08-28T09:07:19.549Z,55.19
2022-08-28T09:09:54.631Z,54.57
2022-08-28T09:12:28.601Z,54.42
2022-08-28T09:15:05.485Z,54.09
2022-08-28T09:17:47.939Z,54.52
2022-08-28T09:20:30.237Z,53.98
2022-08-28T09:23:13.540Z,54.01
2022-08-28T09:26:01.556Z,53.52
2022-08-28T09:28:37.148Z,53.66
2022-08-28T09:31:14.435Z,54.36
2022-08-28T09:33:50.666Z,54.89
2022-08-28T09:36:39.594Z,54.63
2022-08-28T09:39:18.332Z,54.71
2022-08-28T09:42:15.698Z,55.02
2022-08-28T09:44:57.236Z,55.26
2022-08-28T09:47:49.182Z,55.66
2022-08-28T09:50:25.497Z,55.10
2022-08-28T09:53:00.233Z,56.65
2022-08-28T09:55:45.695Z,56.58
2022-08-28T09:58:17.765Z,56.37
2022-08-28T10:01:01.972Z,56.52
2022-08-28T10:03:41.404Z,55.87
2022-08-28T10:06:19.961Z,55.39
2022-08-28T10:09:03.005Z,55.54
2022-08-28T10:11:44.754Z,54.67
2022-08-28T10:14:35.753Z,54.47
2022-08-28T10:17:18.963Z,54.38
2022-08-28T10:20:03.813Z,54.32
2022-08-28T10:22:43.230Z,53.50
2022-08-28T10:25:23.570Z,53.32
2022-08-28T10:28:11.208Z,52.98
2022-08-28T10:30:54.812Z,52.72
2022-08-28T10:33:42.763Z,51.52
2022-08-28T10:36:33.488Z,50.63
2022-08-28T10:39:18.968Z,51.04
2022-08-28T10:41:54.968Z,51.39
2022-08-28T10:44:31.840Z,51.34
2022-08-28T10:47:06.711Z,50.12
2022-08-28T10:49:41.912Z,51.13
2022-08-28T10:52:17.969Z,51.22
2022-08-28T10:54:54.638Z,52.82
2022-08-28T10:57:39.234Z,52.91
2022-08-28T11:00:18.014Z,53.75
2022-08-28T11:02:52.247Z,53.70
2022-08-28T11:05:26.124Z,53.59
2022-08-28T11:08:01.908Z,54.20
2022-08-28T11:10:51.001Z,54.28
2022-08-28T11:13:50.133Z,54.57
2022-08-28T11:16:26.075Z,54.57
2022-08-28T11:19:38.712Z,54.71
2022-08-28T11:22:19.049Z,54.44
2022-08-28T11:25:04.439Z,54.01
2022-08-28T11:28:02.995Z,54.38
2022-08-28T11:30:38.500Z,54.69
2022-08-28T11:33:32.423Z,54.53
2022-08-28T11:36:05.257Z,55.27
2022-08-28T11:39:13.675Z,54.74
2022-08-28T11:42:27.483Z,54.88
2022-08-28T11:44:59.151Z,55.07
2022-08-28T11:47:56.793Z,54.90
2022-08-28T11:50:33.211Z,54.31
2022-08-28T11:53:28.954Z,53.39
2022-08-28T11:56:29.133Z,53.49
2022-08-28T11:59:35.115Z,54.43
2022-08-28T12:02:44.851Z,55.01
2022-08-28T12:05:55.624Z,55.67
2022-08-28T12:08:42.927Z,56.24
2022-08-28T12:11:49.966Z,56.63
2022-08-28T12:15:07.465Z,57.12
2022-08-28T12:17:59.353Z,57.39
2022-08-28T12:20:40.251Z,58.07
2022-08-28T12:23:41.232Z,58.10
2022-08-28T12:26:23.590Z,59.09
2022-08-28T12:29:01.392Z,59.02
2022-08-28T12:32:15.061Z,58.84
2022-08-28T12:34:53.988Z,58.59
2022-08-28T12:37:39.478Z,58.28
2022-08-28T12:40:27.330Z,58.40
2022-08-28T12:43:01.667Z,58.04
2022-08-28T12:45:40.413Z,59.32
2022-08-28T12:48:23.357Z,59.58
2022-08-28T12:51:03.199Z,59.70
2022-08-28T12:53:44.283Z,59.50
2022-08-28T12:56:18.758Z,59.92
2022-08-28T12:58:51.207Z,60.19
2022-08-28T13:01:41.573Z,59.90
2022-08-28T13:04:31.081Z,59.97
2022-08-28T13:07:12.031Z,60.14
2022-08-28T13:09:51.031Z,59.92
2022-08-28T13:12:51.672Z,63.40
2022-08-28T13:15:45.764Z,64.83
2022-08-28T13:18:51.378Z,65.00
2022-08-28T13:21:34.023Z,65.62
2022-08-28T13:24:40.603Z,67.11
2022-08-28T13:27:25.622Z,68.31
2022-08-28T13:30:05.728Z,69.06
2022-08-28T13:32:39.861Z,69.31
2022-08-28T13:35:31.742Z,69.85
2022-08-28T13:38:06.666Z,70.37
2022-08-28T13:40:57.974Z,68.60
2022-08-28T13:43:43.250Z,66.97
2022-08-28T13:46:15.021Z,67.78
2022-08-28T13:48:46.527Z,68.87
2022-08-28T13:51:21.191Z,69.95
2022-08-28T13:53:52.915Z,70.47
2022-08-28T13:56:24.714Z,72.33
2022-08-28T13:58:57.629Z,71.65
2022-08-28T14:01:49.738Z,73.45
2022-08-28T15:54:08.428Z,82.44
2022-08-28T15:56:41.601Z,81.66
2022-08-28T15:59:13.840Z,80.74
2022-08-28T16:01:46.874Z,79.66
2022-08-28T16:04:18.852Z,78.65
2022-08-28T16:06:50.440Z,77.89
2022-08-28T16:09:35.152Z,76.42
2022-08-28T16:12:07.558Z,75.78
2022-08-28T16:14:39.359Z,77.23
2022-08-28T16:17:11.575Z,77.79
2022-08-28T16:19:49.581Z,76.06
2022-08-28T16:22:24.975Z,77.16
2022-08-28T16:24:58.303Z,77.71
2022-08-28T16:27:31.669Z,77.87
2022-08-28T16:30:15.818Z,77.23
2022-08-28T16:32:49.499Z,75.76
2022-08-28T16:35:23.899Z,76.89
2022-08-28T16:38:00.311Z,77.00
2022-08-28T16:40:32.724Z,76.52
2022-08-28T16:44:48.786Z,76.21
2022-08-28T16:50:20.584Z,76.31
2022-08-28T16:52:56.932Z,76.13
2022-08-28T16:55:32.364Z,76.21
2022-08-28T16:58:18.076Z,76.35
2022-08-28T17:00:52.585Z,76.08
2022-08-28T17:03:30.130Z,76.14
2022-08-28T17:06:10.640Z,76.56
2022-08-28T17:08:43.954Z,76.66
2022-08-28T17:11:17.665Z,75.86
2022-08-28T17:13:50.188Z,76.21
2022-08-28T17:16:31.984Z,76.49
2022-08-28T17:19:06.333Z,76.73
2022-08-28T17:21:55.734Z,77.24
2022-08-28T17:24:28.618Z,76.79
2022-08-28T17:27:05.378Z,76.88
2022-08-28T17:29:40.309Z,77.28
2022-08-28T17:32:14.591Z,78.34
2022-08-28T17:34:47.016Z,78.89
2022-08-28T17:37:23.864Z,79.14
2022-08-28T17:39:56.523Z,78.89
2022-08-28T17:42:32.046Z,79.14
2022-08-28T17:45:07.403Z,79.24
2022-08-28T17:47:40.115Z,79.06
2022-08-28T17:50:14.296Z,79.31
2022-08-28T17:52:51.732Z,79.29
2022-08-28T17:55:24.567Z,79.49
2022-08-28T17:57:57.137Z,78.23
2022-08-28T18:00:34.200Z,78.60
2022-08-28T18:03:07.631Z,78.80
2022-08-28T18:05:41.468Z,78.57
2022-08-28T18:08:13.237Z,79.06
2022-08-28T18:10:44.993Z,79.52
2022-08-28T18:13:16.733Z,78.73
2022-08-28T18:15:50.979Z,79.31
2022-08-28T18:18:34.429Z,79.75
2022-08-28T18:21:09.885Z,80.32
2022-08-28T18:23:42.057Z,80.41
2022-08-28T18:26:14.263Z,80.29
2022-08-28T18:28:46.348Z,80.27
2022-08-28T18:31:18.552Z,80.09
2022-08-28T18:33:55.515Z,79.94
2022-08-28T18:36:27.850Z,79.90
2022-08-28T18:38:59.514Z,79.95
2022-08-28T18:41:37.649Z,79.70
2022-08-28T18:44:19.216Z,79.26
2022-08-28T18:46:54.303Z,79.89
2022-08-28T18:49:27.032Z,80.67
2022-08-28T18:51:58.660Z,80.61
2022-08-28T18:54:31.286Z,80.37
2022-08-28T18:57:04.085Z,80.00
2022-08-28T18:59:38.792Z,79.96
2022-08-28T19:02:10.717Z,79.74
2022-08-28T19:04:42.745Z,79.51
2022-08-28T19:07:15.657Z,79.26
2022-08-28T19:09:50.141Z,79.15
2022-08-28T19:12:21.908Z,79.03
2022-08-28T19:14:56.688Z,78.98
2022-08-28T19:17:29.641Z,79.31
2022-08-28T19:20:02.840Z,79.35
2022-08-28T19:22:35.003Z,79.38
2022-08-28T19:25:13.330Z,79.20
2022-08-28T19:28:02.518Z,78.84
2022-08-28T19:30:36.946Z,78.82
2022-08-28T19:33:08.628Z,79.01
2022-08-28T19:35:40.521Z,78.75
2022-08-28T19:38:13.523Z,78.58
2022-08-28T19:40:45.603Z,78.27
2022-08-28T19:43:18.641Z,78.19
2022-08-28T19:45:50.565Z,78.40
2022-08-28T19:48:22.624Z,78.69
2022-08-28T19:51:05.382Z,78.88
2022-08-28T19:53:37.745Z,79.32
2022-08-28T19:56:10.837Z,79.52
2022-08-28T19:58:42.473Z,79.81
2022-08-28T20:01:14.300Z,79.99
2022-08-28T20:03:46.355Z,80.38
2022-08-28T20:06:18.310Z,80.42
2022-08-28T20:08:50.151Z,80.85
2022-08-28T20:11:25.048Z,80.95
2022-08-28T20:13:59.149Z,80.97
2022-08-28T20:16:31.479Z,80.94
2022-08-28T20:19:03.923Z,81.09
2022-08-28T20:21:38.233Z,81.21
2022-08-28T20:24:12.827Z,81.43
2022-08-28T20:26:44.431Z,81.18
2022-08-28T20:29:16.787Z,81.43
2022-08-28T20:31:51.046Z,81.33
2022-08-28T20:34:23.053Z,81.16
2022-08-28T20:36:55.084Z,81.74
2022-08-28T20:39:26.834Z,81.40
2022-08-28T20:41:58.638Z,81.35
2022-08-28T20:44:30.117Z,81.67
2022-08-28T20:47:02.923Z,81.57
2022-08-28T20:49:34.366Z,81.40
2022-08-28T20:52:10.904Z,81.65
2022-08-28T20:54:43.074Z,81.67
2022-08-28T20:57:17.321Z,81.78
2022-08-28T20:59:54.001Z,81.71
2022-08-28T21:02:27.965Z,82.22
2022-08-28T21:05:02.469Z,81.95
2022-08-28T21:07:35.235Z,82.11
2022-08-28T21:10:09.199Z,81.90
2022-08-28T21:12:41.576Z,82.26
2022-08-28T21:15:16.238Z,82.02
2022-08-28T21:17:48.120Z,81.83
2022-08-28T21:20:21.860Z,82.08
2022-08-28T21:22:54.260Z,82.23
2022-08-28T21:25:26.588Z,82.38
2022-08-28T21:27:58.099Z,82.12
2022-08-28T21:30:35.571Z,82.11
2022-08-28T21:33:07.096Z,81.98
2022-08-28T21:35:40.800Z,81.55
2022-08-28T21:38:13.688Z,81.80
2022-08-28T21:40:45.530Z,82.34
2022-08-28T21:43:17.225Z,81.89
2022-08-28T21:45:59.920Z,81.85
2022-08-28T21:48:33.107Z,81.89
2022-08-28T21:51:07.049Z,82.31
2022-08-28T21:53:40.099Z,82.46
2022-08-28T21:56:11.806Z,82.37
2022-08-28T21:58:43.311Z,82.44
2022-08-28T22:01:17.274Z,82.46
2022-08-28T22:03:49.350Z,82.37
2022-08-28T22:06:24.120Z,82.34
2022-08-28T22:08:58.933Z,82.92
2022-08-28T22:11:31.023Z,82.92
2022-08-28T22:14:02.700Z,81.79
2022-08-28T22:16:34.330Z,81.89
2022-08-28T22:19:06.174Z,82.12
2022-08-28T22:21:54.995Z,82.15
2022-08-28T22:24:26.641Z,81.93
2022-08-28T22:26:58.118Z,81.94
2022-08-28T22:29:36.243Z,81.80
2022-08-28T22:32:08.875Z,82.21
2022-08-28T22:34:43.025Z,82.01
2022-08-28T22:37:14.919Z,82.19
2022-08-28T22:39:47.745Z,82.07
2022-08-28T22:42:23.033Z,82.17
2022-08-28T22:44:56.009Z,82.30
2022-08-28T22:47:28.000Z,82.46
2022-08-28T22:50:04.273Z,82.41
2022-08-28T22:52:37.174Z,82.79
2022-08-28T22:55:13.121Z,82.90
2022-08-28T22:57:44.956Z,82.69
2022-08-28T23:00:23.903Z,82.44
2022-08-28T23:02:57.517Z,82.15
2022-08-28T23:05:31.602Z,82.38
2022-08-28T23:08:03.267Z,82.58
2022-08-28T23:10:57.602Z,82.40
2022-08-28T23:13:26.209Z,82.70
2022-08-28T23:16:00.072Z,82.79
2022-08-28T23:18:51.693Z,82.49
2022-08-28T23:21:28.405Z,82.45
2022-08-28T23:24:00.600Z,82.86
2022-08-28T23:26:33.151Z,83.29
2022-08-28T23:29:05.157Z,83.05
2022-08-28T23:31:37.106Z,82.76
2022-08-28T23:34:10.208Z,82.78
2022-08-28T23:36:45.259Z,83.01
2022-08-28T23:39:17.315Z,83.29
2022-08-28T23:41:49.200Z,82.61
2022-08-28T23:44:23.864Z,82.81
2022-08-28T23:46:55.304Z,83.13
2022-08-28T23:49:27.521Z,83.29
2022-08-28T23:52:01.669Z,82.80
2022-08-28T23:54:35.022Z,82.43
2022-08-28T23:57:06.699Z,82.68
2022-08-28T23:59:38.519Z,82.42
